Time;durP1;ratioP1;P1;durP2;ratioP2;P2;SDS_P1;SDS_P2;PMS_P1;PMS_P2;Temp;Humidity;BMP_temperature;BMP_pressure;BME280_temperature;BME280_humidity;BME280_pressure;Samples;Min_cycle;Max_cycle;Signal;HPM_P1;HPM_P2
2022/06/27 00:02:22;;;;;;;6.03;3.55;;;;;;;;;;5061065;28;20258;-69
2022/06/27 00:04:48;;;;;;;6.95;3.47;;;;;;;;;;5067332;28;20056;-69
2022/06/27 00:07:13;;;;;;;5.97;3.17;;;;;;;;;;5066273;28;20056;-69
2022/06/27 00:09:38;;;;;;;4.73;3.20;;;;;;;;;;5065955;28;20319;-69
2022/06/27 00:12:04;;;;;;;4.90;3.00;;;;;;;;;;5061197;28;20298;-70
2022/06/27 00:14:29;;;;;;;7.22;3.47;;;;;;;;;;5064583;28;20056;-69
2022/06/27 00:16:54;;;;;;;7.53;3.30;;;;;;;;;;5063437;28;20028;-69
2022/06/27 00:19:19;;;;;;;9.48;3.47;;;;;;;;;;5061854;28;20341;-70
2022/06/27 00:21:45;;;;;;;6.90;3.67;;;;;;;;;;5060385;28;20025;-69
2022/06/27 00:24:10;;;;;;;4.43;3.45;;;;;;;;;;5067106;28;20275;-70
2022/06/27 00:26:35;;;;;;;7.78;3.85;;;;;;;;;;5069978;28;20027;-69
2022/06/27 00:29:01;;;;;;;4.53;3.67;;;;;;;;;;5065643;28;20032;-69
2022/06/27 00:31:26;;;;;;;5.45;3.80;;;;;;;;;;5068068;28;20012;-69
2022/06/27 00:33:51;;;;;;;11.17;4.27;;;;;;;;;;5063555;28;20481;-69
2022/06/27 00:36:16;;;;;;;6.47;3.75;;;;;;;;;;5056132;28;20362;-70
2022/06/27 00:38:41;;;;;;;5.07;3.30;;;;;;;;;;5070045;28;20096;-69
2022/06/27 00:41:07;;;;;;;6.28;3.45;;;;;;;;;;5069949;28;20627;-70
2022/06/27 00:43:32;;;;;;;6.78;3.50;;;;;;;;;;5067361;28;20028;-69
2022/06/27 00:45:57;;;;;;;8.85;3.83;;;;;;;;;;5070431;28;20441;-69
2022/06/27 00:48:22;;;;;;;6.15;3.85;;;;;;;;;;5064665;28;20024;-69
2022/06/27 00:50:48;;;;;;;15.53;4.23;;;;;;;;;;5063188;28;20024;-69
2022/06/27 00:53:13;;;;;;;6.25;4.25;;;;;;;;;;5057516;28;20267;-69
2022/06/27 00:55:39;;;;;;;8.48;3.67;;;;;;;;;;5063336;28;20028;-69
2022/06/27 00:58:04;;;;;;;9.60;4.28;;;;;;;;;;5066569;28;20024;-70
2022/06/27 01:00:42;;;;;;;8.73;5.03;;;;;;;;;;5143122;22;20566;-91
2022/06/27 01:03:07;;;;;;;9.15;4.38;;;;;;;;;;5070999;23;20392;-66
2022/06/27 01:05:33;;;;;;;7.60;4.07;;;;;;;;;;5102377;28;20044;-66
2022/06/27 01:07:59;;;;;;;11.40;4.20;;;;;;;;;;5108882;28;20091;-66
2022/06/27 01:10:24;;;;;;;13.90;4.40;;;;;;;;;;5087404;28;20052;-66
2022/06/27 01:12:49;;;;;;;9.93;4.70;;;;;;;;;;5085331;28;20251;-66
2022/06/27 01:15:15;;;;;;;7.72;3.92;;;;;;;;;;5084202;28;20028;-66
2022/06/27 01:17:40;;;;;;;9.10;4.70;;;;;;;;;;5084455;28;20016;-66
2022/06/27 01:20:06;;;;;;;6.93;4.75;;;;;;;;;;5078906;28;20074;-66
2022/06/27 01:22:31;;;;;;;8.93;5.88;;;;;;;;;;5085140;28;20016;-66
2022/06/27 01:24:56;;;;;;;8.07;4.97;;;;;;;;;;5084625;28;20114;-66
2022/06/27 01:27:22;;;;;;;10.30;5.40;;;;;;;;;;5087193;28;20052;-67
2022/06/27 01:29:47;;;;;;;9.35;5.55;;;;;;;;;;5084322;28;20031;-66
2022/06/27 01:32:12;;;;;;;8.40;5.00;;;;;;;;;;5091276;28;20085;-66
2022/06/27 01:34:37;;;;;;;9.50;4.87;;;;;;;;;;5082179;28;20674;-66
2022/06/27 01:37:03;;;;;;;7.78;4.75;;;;;;;;;;5083622;28;20282;-67
2022/06/27 01:39:28;;;;;;;12.23;5.22;;;;;;;;;;5086503;28;20103;-65
2022/06/27 01:41:58;;;;;;;12.87;5.50;;;;;;;;;;5085802;28;20099;-66
2022/06/27 01:44:25;;;;;;;11.55;5.70;;;;;;;;;;5081864;28;20309;-65
2022/06/27 01:46:59;;;;;;;13.45;5.82;;;;;;;;;;5089400;28;20020;-66
2022/06/27 01:49:24;;;;;;;9.20;5.25;;;;;;;;;;5080513;28;20016;-66
2022/06/27 01:51:50;;;;;;;8.17;5.23;;;;;;;;;;5088580;28;20077;-66
2022/06/27 01:54:16;;;;;;;7.90;6.05;;;;;;;;;;5083993;28;20274;-66
2022/06/27 01:56:42;;;;;;;12.05;7.50;;;;;;;;;;5078176;28;20038;-66
2022/06/27 01:59:08;;;;;;;10.07;6.05;;;;;;;;;;5089964;28;20024;-66
2022/06/27 02:01:34;;;;;;;15.07;6.80;;;;;;;;;;5078410;28;20019;-66
2022/06/27 02:03:59;;;;;;;10.13;5.75;;;;;;;;;;5080912;28;20020;-66
2022/06/27 02:06:25;;;;;;;12.38;5.20;;;;;;;;;;5089677;28;20105;-66
2022/06/27 02:08:51;;;;;;;7.72;4.80;;;;;;;;;;5084375;28;20074;-65
2022/06/27 02:11:16;;;;;;;10.85;5.03;;;;;;;;;;5082283;28;20028;-66
2022/06/27 02:13:42;;;;;;;12.40;5.25;;;;;;;;;;5086203;28;20487;-66
2022/06/27 02:16:07;;;;;;;7.95;5.03;;;;;;;;;;5088882;28;20024;-66
2022/06/27 02:18:33;;;;;;;13.23;5.30;;;;;;;;;;5088682;28;20031;-65
2022/06/27 02:20:58;;;;;;;7.32;4.68;;;;;;;;;;5080920;28;20266;-66
2022/06/27 02:23:23;;;;;;;8.52;5.78;;;;;;;;;;5074216;28;20074;-66
2022/06/27 02:25:50;;;;;;;6.57;5.15;;;;;;;;;;5088463;28;20042;-66
2022/06/27 02:28:16;;;;;;;7.18;5.38;;;;;;;;;;5089835;28;20020;-66
2022/06/27 02:30:41;;;;;;;8.38;5.47;;;;;;;;;;5088819;28;20023;-65
2022/06/27 02:33:06;;;;;;;9.90;5.15;;;;;;;;;;5089000;28;20515;-66
2022/06/27 02:35:32;;;;;;;10.85;5.15;;;;;;;;;;5086030;28;20582;-66
2022/06/27 02:37:59;;;;;;;9.50;5.43;;;;;;;;;;5078611;28;20012;-66
2022/06/27 02:40:25;;;;;;;11.27;5.70;;;;;;;;;;5095320;28;20020;-66
2022/06/27 02:42:51;;;;;;;8.52;5.72;;;;;;;;;;5091552;28;20012;-66
2022/06/27 02:45:16;;;;;;;9.95;5.82;;;;;;;;;;5089005;28;20027;-65
2022/06/27 02:47:43;;;;;;;9.43;5.43;;;;;;;;;;5090699;28;20015;-66
2022/06/27 02:50:08;;;;;;;10.75;5.13;;;;;;;;;;5087154;28;20106;-66
2022/06/27 02:52:35;;;;;;;7.70;4.95;;;;;;;;;;5078514;28;20146;-66
2022/06/27 02:55:07;;;;;;;9.38;5.10;;;;;;;;;;5095339;28;20035;-66
2022/06/27 02:57:38;;;;;;;9.23;5.00;;;;;;;;;;5090636;28;20056;-66
2022/06/27 03:00:05;;;;;;;9.30;4.90;;;;;;;;;;5095322;28;20020;-66
2022/06/27 03:02:30;;;;;;;7.45;4.45;;;;;;;;;;5087636;28;20169;-67
2022/06/27 03:04:56;;;;;;;6.18;4.18;;;;;;;;;;5089175;28;20047;-67
2022/06/27 03:07:22;;;;;;;13.90;5.18;;;;;;;;;;5081823;28;20112;-67
2022/06/27 03:09:47;;;;;;;7.57;4.45;;;;;;;;;;5093412;28;20101;-66
2022/06/27 03:12:12;;;;;;;7.90;4.55;;;;;;;;;;5095674;28;20111;-67
2022/06/27 03:14:37;;;;;;;7.47;4.78;;;;;;;;;;5085465;28;20111;-66
2022/06/27 03:17:03;;;;;;;7.45;4.82;;;;;;;;;;5090262;28;20034;-66
2022/06/27 03:19:28;;;;;;;10.05;5.13;;;;;;;;;;5094410;28;20024;-66
2022/06/27 03:21:54;;;;;;;12.23;4.78;;;;;;;;;;5084880;28;20027;-66
2022/06/27 03:24:20;;;;;;;8.98;4.63;;;;;;;;;;5094335;28;20391;-67
2022/06/27 03:26:45;;;;;;;7.80;4.45;;;;;;;;;;5093664;28;20495;-65
2022/06/27 03:29:10;;;;;;;5.22;4.40;;;;;;;;;;5087558;28;20107;-66
2022/06/27 03:31:35;;;;;;;7.20;5.03;;;;;;;;;;5087535;28;20066;-66
2022/06/27 03:34:01;;;;;;;8.17;4.73;;;;;;;;;;5094370;28;20024;-67
2022/06/27 03:36:26;;;;;;;12.60;4.67;;;;;;;;;;5095318;28;20300;-67
2022/06/27 03:38:51;;;;;;;10.00;5.27;;;;;;;;;;5089613;28;20270;-67
2022/06/27 03:41:17;;;;;;;18.93;5.57;;;;;;;;;;5088349;28;20804;-67
2022/06/27 03:43:42;;;;;;;11.35;5.05;;;;;;;;;;5091783;28;20447;-67
2022/06/27 03:46:07;;;;;;;7.73;4.97;;;;;;;;;;5083997;28;20628;-67
2022/06/27 03:51:16;;;;;;;13.60;5.10;;;;;;;;;;5077793;28;20286;-66
2022/06/27 03:53:41;;;;;;;9.02;5.35;;;;;;;;;;5084832;28;20382;-66
2022/06/27 03:56:07;;;;;;;8.67;5.60;;;;;;;;;;5085302;28;20046;-66
2022/06/27 03:58:32;;;;;;;10.67;6.07;;;;;;;;;;5083102;28;20274;-66
2022/06/27 04:00:57;;;;;;;10.63;6.10;;;;;;;;;;5081989;28;20358;-66
2022/06/27 04:03:22;;;;;;;7.22;4.88;;;;;;;;;;5074705;28;20282;-66
2022/06/27 04:05:47;;;;;;;8.65;5.70;;;;;;;;;;5087446;28;20027;-67
2022/06/27 04:08:13;;;;;;;15.30;5.45;;;;;;;;;;5085732;28;20028;-67
2022/06/27 04:10:38;;;;;;;7.28;5.03;;;;;;;;;;5087104;28;20024;-67
2022/06/27 04:13:03;;;;;;;10.15;6.18;;;;;;;;;;5088202;28;20016;-66
2022/06/27 04:15:29;;;;;;;8.30;5.80;;;;;;;;;;5081098;28;20033;-66
2022/06/27 04:17:54;;;;;;;12.88;5.22;;;;;;;;;;5088615;28;20020;-66
2022/06/27 04:20:20;;;;;;;13.85;5.80;;;;;;;;;;5079535;28;20012;-67
2022/06/27 04:22:45;;;;;;;9.85;6.07;;;;;;;;;;5080922;28;20515;-66
2022/06/27 04:25:10;;;;;;;10.23;6.10;;;;;;;;;;5090409;28;20047;-67
2022/06/27 04:27:35;;;;;;;13.45;6.45;;;;;;;;;;5086387;28;20278;-66
2022/06/27 04:30:01;;;;;;;13.30;6.20;;;;;;;;;;5071994;28;20035;-67
2022/06/27 04:32:28;;;;;;;10.27;5.82;;;;;;;;;;5075989;28;20275;-67
2022/06/27 04:34:53;;;;;;;7.22;5.45;;;;;;;;;;5076792;28;20016;-67
2022/06/27 04:37:18;;;;;;;8.90;5.82;;;;;;;;;;5079899;28;20539;-67
2022/06/27 04:39:44;;;;;;;12.05;5.93;;;;;;;;;;5089238;28;20020;-67
2022/06/27 04:42:09;;;;;;;10.38;6.40;;;;;;;;;;5082566;28;20080;-67
2022/06/27 04:44:38;;;;;;;15.57;6.38;;;;;;;;;;5089336;28;20660;-67
2022/06/27 04:47:07;;;;;;;14.25;6.35;;;;;;;;;;5088927;28;20040;-67
2022/06/27 04:49:32;;;;;;;13.70;6.32;;;;;;;;;;5074350;28;20041;-66
2022/06/27 04:51:58;;;;;;;14.18;7.45;;;;;;;;;;5065271;28;20110;-67
2022/06/27 04:54:24;;;;;;;13.82;7.32;;;;;;;;;;5091735;28;20043;-67
2022/06/27 04:56:49;;;;;;;10.65;6.57;;;;;;;;;;5082337;28;20055;-67
2022/06/27 04:59:15;;;;;;;15.32;7.75;;;;;;;;;;5090957;28;20032;-67
2022/06/27 05:01:40;;;;;;;11.65;7.35;;;;;;;;;;5081558;28;20068;-67
2022/06/27 05:04:06;;;;;;;12.45;8.00;;;;;;;;;;5076442;28;20031;-66
2022/06/27 05:06:31;;;;;;;14.25;7.95;;;;;;;;;;5077913;28;20024;-67
2022/06/27 05:08:56;;;;;;;11.90;7.72;;;;;;;;;;5090888;28;20094;-67
2022/06/27 05:11:22;;;;;;;12.30;7.23;;;;;;;;;;5083376;28;20023;-67
2022/06/27 05:13:47;;;;;;;10.30;7.80;;;;;;;;;;5088886;28;20327;-67
2022/06/27 05:16:14;;;;;;;15.00;8.10;;;;;;;;;;5089657;28;20027;-67
2022/06/27 05:18:40;;;;;;;16.55;8.20;;;;;;;;;;5078542;28;20021;-67
2022/06/27 05:21:05;;;;;;;13.85;8.70;;;;;;;;;;5075773;28;20016;-67
2022/06/27 05:23:32;;;;;;;13.02;8.05;;;;;;;;;;5081907;28;20035;-67
2022/06/27 05:25:57;;;;;;;15.57;9.75;;;;;;;;;;5085765;28;20028;-67
2022/06/27 05:28:22;;;;;;;15.30;8.70;;;;;;;;;;5085699;28;20073;-67
2022/06/27 05:30:48;;;;;;;15.73;9.47;;;;;;;;;;5085581;28;20022;-67
2022/06/27 05:33:13;;;;;;;15.77;10.45;;;;;;;;;;5079541;28;20362;-67
2022/06/27 05:35:38;;;;;;;15.27;10.35;;;;;;;;;;5075946;28;20087;-67
2022/06/27 05:38:04;;;;;;;19.58;10.43;;;;;;;;;;5085653;28;20044;-67
2022/06/27 05:40:30;;;;;;;14.15;10.32;;;;;;;;;;5088365;28;20020;-67
2022/06/27 05:42:57;;;;;;;13.60;9.10;;;;;;;;;;5078799;28;20024;-68
2022/06/27 05:45:23;;;;;;;17.88;10.95;;;;;;;;;;5074545;28;20717;-67
2022/06/27 05:47:48;;;;;;;17.05;10.43;;;;;;;;;;5082671;28;20090;-67
2022/06/27 05:50:13;;;;;;;18.70;11.57;;;;;;;;;;5077452;28;20484;-67
2022/06/27 05:52:39;;;;;;;16.80;10.97;;;;;;;;;;5087965;28;20784;-67
2022/06/27 05:55:05;;;;;;;15.75;11.50;;;;;;;;;;5080713;28;20259;-68
2022/06/27 05:57:31;;;;;;;17.23;11.10;;;;;;;;;;5083904;28;20628;-67
2022/06/27 05:59:56;;;;;;;24.05;14.70;;;;;;;;;;5085596;28;20110;-67
2022/06/27 06:02:22;;;;;;;18.02;12.68;;;;;;;;;;5083110;28;20095;-66
2022/06/27 06:04:47;;;;;;;18.45;12.82;;;;;;;;;;5084711;28;20028;-66
2022/06/27 06:07:13;;;;;;;20.63;12.85;;;;;;;;;;5086907;28;20139;-66
2022/06/27 06:09:38;;;;;;;31.13;16.02;;;;;;;;;;5080369;28;20008;-67
2022/06/27 06:12:04;;;;;;;23.70;11.95;;;;;;;;;;5090303;28;20027;-67
2022/06/27 06:14:29;;;;;;;26.13;14.35;;;;;;;;;;5082655;28;20024;-67
2022/06/27 06:16:54;;;;;;;18.80;12.60;;;;;;;;;;5084846;28;20020;-67
2022/06/27 06:19:20;;;;;;;20.08;11.32;;;;;;;;;;5076093;28;20315;-67
2022/06/27 06:21:45;;;;;;;18.80;12.73;;;;;;;;;;5087993;28;20016;-66
2022/06/27 06:24:10;;;;;;;19.48;13.20;;;;;;;;;;5084841;28;20024;-67
2022/06/27 06:26:36;;;;;;;20.95;13.70;;;;;;;;;;5086751;28;20376;-67
2022/06/27 06:29:12;;;;;;;26.85;14.48;;;;;;;;;;5084040;28;20020;-67
2022/06/27 06:31:38;;;;;;;18.33;12.77;;;;;;;;;;5078574;28;20016;-67
2022/06/27 06:34:04;;;;;;;19.38;13.80;;;;;;;;;;5074343;28;20409;-67
2022/06/27 06:36:30;;;;;;;19.40;12.68;;;;;;;;;;5080675;28;20020;-67
2022/06/27 06:38:57;;;;;;;18.40;12.65;;;;;;;;;;5078193;28;20023;-67
2022/06/27 06:41:22;;;;;;;20.75;13.10;;;;;;;;;;5082186;28;20015;-67
2022/06/27 06:43:48;;;;;;;18.67;13.17;;;;;;;;;;5075152;28;20476;-67
2022/06/27 06:46:14;;;;;;;21.75;13.27;;;;;;;;;;5074762;28;20282;-67
2022/06/27 06:48:40;;;;;;;20.23;13.00;;;;;;;;;;5067996;28;20089;-67
2022/06/27 06:51:06;;;;;;;16.38;11.73;;;;;;;;;;5075569;28;20543;-66
2022/06/27 06:53:32;;;;;;;21.73;14.50;;;;;;;;;;5082071;28;20096;-67
2022/06/27 06:55:57;;;;;;;21.88;13.88;;;;;;;;;;5085368;28;20027;-67
2022/06/27 06:58:24;;;;;;;19.38;12.23;;;;;;;;;;5085332;28;20472;-66
2022/06/27 07:00:50;;;;;;;21.40;12.30;;;;;;;;;;5082074;28;20440;-67
2022/06/27 07:03:16;;;;;;;21.38;14.00;;;;;;;;;;5075971;28;20039;-67
2022/06/27 07:05:42;;;;;;;19.27;13.30;;;;;;;;;;5079333;28;20099;-67
2022/06/27 07:08:09;;;;;;;25.60;15.20;;;;;;;;;;5084370;28;20024;-67
2022/06/27 07:10:34;;;;;;;23.25;15.40;;;;;;;;;;5076116;28;20439;-67
2022/06/27 07:13:00;;;;;;;24.40;15.43;;;;;;;;;;5078027;28;20012;-67
2022/06/27 07:15:26;;;;;;;20.45;14.48;;;;;;;;;;5079445;28;20278;-67
2022/06/27 07:17:52;;;;;;;23.33;14.77;;;;;;;;;;5078335;28;20024;-67
2022/06/27 07:20:20;;;;;;;22.38;15.45;;;;;;;;;;5081803;28;20496;-67
2022/06/27 07:22:49;;;;;;;26.63;16.30;;;;;;;;;;5080794;28;20107;-66
2022/06/27 07:25:15;;;;;;;22.27;13.20;;;;;;;;;;5085798;28;20019;-67
2022/06/27 07:27:42;;;;;;;19.92;14.40;;;;;;;;;;5082370;28;20012;-67
2022/06/27 07:30:09;;;;;;;24.52;13.02;;;;;;;;;;5078195;28;20025;-67
2022/06/27 07:32:35;;;;;;;27.52;14.35;;;;;;;;;;5085268;28;20468;-66
2022/06/27 07:35:01;;;;;;;26.98;13.73;;;;;;;;;;5081358;28;20032;-67
2022/06/27 07:37:27;;;;;;;20.45;12.88;;;;;;;;;;5089401;28;20099;-66
2022/06/27 07:39:53;;;;;;;20.50;13.38;;;;;;;;;;5086542;28;20112;-67
2022/06/27 07:42:19;;;;;;;21.73;14.13;;;;;;;;;;5087059;28;20048;-67
2022/06/27 07:44:44;;;;;;;24.98;14.10;;;;;;;;;;5088360;28;20058;-67
2022/06/27 07:47:09;;;;;;;21.83;14.77;;;;;;;;;;5074621;28;20082;-66
2022/06/27 07:49:34;;;;;;;21.63;15.37;;;;;;;;;;5086123;28;20265;-67
2022/06/27 07:51:59;;;;;;;24.38;14.32;;;;;;;;;;5085607;28;20283;-67
2022/06/27 07:54:25;;;;;;;18.90;13.65;;;;;;;;;;5082267;28;20739;-67
2022/06/27 07:56:51;;;;;;;22.13;14.48;;;;;;;;;;5084525;28;20038;-67
2022/06/27 07:59:17;;;;;;;22.58;14.57;;;;;;;;;;5080489;28;20111;-67
2022/06/27 08:01:43;;;;;;;23.65;14.32;;;;;;;;;;5087696;28;20017;-67
2022/06/27 08:04:11;;;;;;;29.67;15.48;;;;;;;;;;5074605;28;20055;-67
2022/06/27 08:06:36;;;;;;;22.67;14.32;;;;;;;;;;5079138;28;20082;-67
2022/06/27 08:09:03;;;;;;;21.48;14.80;;;;;;;;;;5080555;28;20020;-67
2022/06/27 08:11:29;;;;;;;20.10;13.30;;;;;;;;;;5079796;28;20035;-67
2022/06/27 08:13:56;;;;;;;25.98;15.35;;;;;;;;;;5072684;28;20017;-67
2022/06/27 08:16:22;;;;;;;23.33;15.07;;;;;;;;;;5088994;28;20023;-66
2022/06/27 08:18:48;;;;;;;26.50;15.00;;;;;;;;;;5087286;28;20509;-67
2022/06/27 08:21:20;;;;;;;17.77;13.57;;;;;;;;;;5080631;28;20111;-67
2022/06/27 08:23:46;;;;;;;20.65;13.70;;;;;;;;;;5078777;28;20017;-67
2022/06/27 08:26:12;;;;;;;16.77;13.20;;;;;;;;;;5085720;28;20019;-67
2022/06/27 08:28:38;;;;;;;22.13;14.20;;;;;;;;;;5078786;28;20084;-67
2022/06/27 08:31:07;;;;;;;18.17;12.68;;;;;;;;;;5076955;28;20095;-67
2022/06/27 08:33:33;;;;;;;21.70;12.88;;;;;;;;;;5081276;28;20017;-67
2022/06/27 08:35:59;;;;;;;16.85;12.27;;;;;;;;;;5088506;28;20024;-67
2022/06/27 08:38:24;;;;;;;18.02;11.77;;;;;;;;;;5083655;28;20059;-67
2022/06/27 08:40:52;;;;;;;18.58;11.95;;;;;;;;;;5090991;28;20016;-67
2022/06/27 08:43:17;;;;;;;16.05;12.05;;;;;;;;;;5080592;28;20031;-67
2022/06/27 08:45:44;;;;;;;21.05;11.60;;;;;;;;;;5085284;28;20024;-67
2022/06/27 08:48:13;;;;;;;18.08;10.80;;;;;;;;;;5077884;28;20109;-67
2022/06/27 08:50:38;;;;;;;16.33;10.75;;;;;;;;;;5077317;28;20024;-67
2022/06/27 08:53:04;;;;;;;18.73;10.98;;;;;;;;;;5080440;28;20030;-67
2022/06/27 08:55:33;;;;;;;17.17;11.00;;;;;;;;;;5087614;28;20030;-67
2022/06/27 08:58:06;;;;;;;17.02;11.73;;;;;;;;;;5077022;28;20024;-67
2022/06/27 09:00:32;;;;;;;17.75;11.27;;;;;;;;;;5077740;28;20423;-66
2022/06/27 09:02:58;;;;;;;21.80;11.20;;;;;;;;;;5081021;28;20029;-66
2022/06/27 09:05:26;;;;;;;18.23;11.30;;;;;;;;;;5079273;28;20450;-67
2022/06/27 09:07:52;;;;;;;14.88;10.32;;;;;;;;;;5076550;28;20048;-67
2022/06/27 09:10:26;;;;;;;18.90;12.07;;;;;;;;;;5080036;28;20051;-67
2022/06/27 09:12:58;;;;;;;19.60;10.52;;;;;;;;;;5082626;28;20457;-67
2022/06/27 09:15:25;;;;;;;17.48;9.85;;;;;;;;;;5069903;28;20023;-66
2022/06/27 09:18:01;;;;;;;16.10;11.25;;;;;;;;;;5084009;28;20103;-67
2022/06/27 09:20:44;;;;;;;18.70;10.18;;;;;;;;;;5071821;28;20485;-67
2022/06/27 09:23:25;;;;;;;18.20;11.18;;;;;;;;;;5080573;28;20431;-67
2022/06/27 09:25:56;;;;;;;19.10;10.88;;;;;;;;;;5082254;28;20024;-67
2022/06/27 09:28:21;;;;;;;20.50;11.90;;;;;;;;;;5088490;28;20478;-67
2022/06/27 09:30:46;;;;;;;21.10;11.93;;;;;;;;;;5081499;28;20023;-67
2022/06/27 09:33:11;;;;;;;15.75;10.55;;;;;;;;;;5082324;28;20086;-66
2022/06/27 09:35:38;;;;;;;16.37;11.00;;;;;;;;;;5084076;28;20077;-67
2022/06/27 09:38:06;;;;;;;16.38;11.00;;;;;;;;;;5083007;28;20016;-67
2022/06/27 09:40:33;;;;;;;18.95;11.15;;;;;;;;;;5071152;28;20067;-67
2022/06/27 09:42:59;;;;;;;15.07;10.45;;;;;;;;;;5082066;28;20024;-67
2022/06/27 09:45:26;;;;;;;16.50;9.95;;;;;;;;;;5079962;28;20012;-66
2022/06/27 09:48:17;;;;;;;14.60;10.02;;;;;;;;;;5078677;28;20507;-67
2022/06/27 09:50:44;;;;;;;14.68;10.93;;;;;;;;;;5079849;28;20123;-67
2022/06/27 09:53:09;;;;;;;19.10;10.52;;;;;;;;;;5079195;28;20012;-67
2022/06/27 09:55:36;;;;;;;17.13;11.55;;;;;;;;;;5084398;28;20012;-66
2022/06/27 09:58:03;;;;;;;15.02;10.60;;;;;;;;;;5086593;28;20497;-66
2022/06/27 10:00:29;;;;;;;22.45;9.43;;;;;;;;;;5079298;28;20024;-66
2022/06/27 10:02:55;;;;;;;16.77;10.90;;;;;;;;;;5082602;28;20024;-67
2022/06/27 10:05:21;;;;;;;17.83;10.95;;;;;;;;;;5088649;28;20024;-67
2022/06/27 10:07:52;;;;;;;14.48;10.15;;;;;;;;;;5084207;28;20476;-67
2022/06/27 10:10:17;;;;;;;22.55;10.73;;;;;;;;;;5071710;28;20063;-67
2022/06/27 10:12:54;;;;;;;19.75;11.02;;;;;;;;;;5081388;28;20078;-67
2022/06/27 10:15:21;;;;;;;14.32;10.63;;;;;;;;;;5074034;28;20472;-67
2022/06/27 10:17:47;;;;;;;16.75;10.18;;;;;;;;;;5076748;28;20023;-67
2022/06/27 10:20:16;;;;;;;15.52;9.40;;;;;;;;;;5077345;28;20020;-67
2022/06/27 10:22:41;;;;;;;18.65;10.88;;;;;;;;;;5073452;28;20029;-67
2022/06/27 10:25:25;;;;;;;17.25;10.65;;;;;;;;;;5082528;28;20376;-66
2022/06/27 10:28:10;;;;;;;15.02;9.68;;;;;;;;;;5076881;28;20036;-67
2022/06/27 10:30:43;;;;;;;20.70;10.68;;;;;;;;;;5077550;28;20463;-67
2022/06/27 10:33:17;;;;;;;13.40;10.32;;;;;;;;;;5073245;28;20111;-67
2022/06/27 10:36:05;;;;;;;15.38;9.65;;;;;;;;;;5080819;28;20490;-67
2022/06/27 10:38:30;;;;;;;30.90;18.55;;;;;;;;;;5082844;28;20024;-67
2022/06/27 10:40:55;;;;;;;29.85;15.02;;;;;;;;;;5078769;28;20626;-67
2022/06/27 10:43:39;;;;;;;16.67;10.57;;;;;;;;;;5079665;28;20024;-67
2022/06/27 10:46:10;;;;;;;16.40;10.82;;;;;;;;;;5082813;28;20151;-67
2022/06/27 10:48:37;;;;;;;23.75;14.55;;;;;;;;;;5086173;28;20016;-67
2022/06/27 10:51:21;;;;;;;24.58;13.02;;;;;;;;;;5060731;28;20047;-67
2022/06/27 10:53:48;;;;;;;17.08;13.32;;;;;;;;;;5090513;28;20016;-67
2022/06/27 10:56:28;;;;;;;18.27;12.95;;;;;;;;;;5089695;28;20086;-67
2022/06/27 10:58:54;;;;;;;18.88;13.68;;;;;;;;;;5091594;28;20062;-67
2022/06/27 11:01:19;;;;;;;17.77;12.93;;;;;;;;;;5081484;28;20110;-68
2022/06/27 11:03:44;;;;;;;21.70;15.77;;;;;;;;;;5091786;28;20829;-67
2022/06/27 11:06:13;;;;;;;24.58;17.10;;;;;;;;;;5079471;28;20292;-67
2022/06/27 11:08:39;;;;;;;20.67;15.90;;;;;;;;;;5084566;28;20472;-67
2022/06/27 11:11:05;;;;;;;26.65;16.70;;;;;;;;;;5083247;28;20111;-67
2022/06/27 11:13:49;;;;;;;22.52;15.35;;;;;;;;;;5088304;28;20099;-67
2022/06/27 11:16:18;;;;;;;25.90;15.23;;;;;;;;;;5081636;28;20024;-68
2022/06/27 11:18:53;;;;;;;21.75;15.02;;;;;;;;;;5081090;28;20473;-67
2022/06/27 11:21:22;;;;;;;23.23;14.57;;;;;;;;;;5082213;28;20028;-67
2022/06/27 11:23:51;;;;;;;24.80;14.63;;;;;;;;;;5092899;28;20020;-67
2022/06/27 11:26:17;;;;;;;21.35;14.45;;;;;;;;;;5086405;28;20335;-67
2022/06/27 11:34:10;;;;;;;22.27;13.40;;;;;;;;;;5082711;28;20023;-67
2022/06/27 11:36:37;;;;;;;24.63;13.52;;;;;;;;;;5083965;28;20388;-67
2022/06/27 11:39:02;;;;;;;21.17;13.60;;;;;;;;;;5082337;28;20027;-67
2022/06/27 11:41:28;;;;;;;20.90;14.25;;;;;;;;;;5082808;28;20020;-67
2022/06/27 11:43:53;;;;;;;19.88;13.73;;;;;;;;;;5087424;28;20435;-67
2022/06/27 11:46:22;;;;;;;23.00;14.95;;;;;;;;;;5084243;28;20020;-67
2022/06/27 11:48:54;;;;;;;21.48;14.55;;;;;;;;;;5092149;28;20113;-66
2022/06/27 11:51:20;;;;;;;21.90;14.25;;;;;;;;;;5080689;28;20019;-67
2022/06/27 11:53:52;;;;;;;22.23;14.52;;;;;;;;;;5082914;28;20012;-67
2022/06/27 11:56:22;;;;;;;23.27;17.13;;;;;;;;;;5086674;28;20012;-67
2022/06/27 11:58:48;;;;;;;24.55;15.07;;;;;;;;;;5084884;28;20036;-67
2022/06/27 12:01:13;;;;;;;22.13;13.70;;;;;;;;;;5087175;28;20036;-68
2022/06/27 12:03:38;;;;;;;21.40;14.87;;;;;;;;;;5079628;28;20028;-67
2022/06/27 12:06:13;;;;;;;20.13;14.07;;;;;;;;;;5089271;28;20032;-67
2022/06/27 12:08:57;;;;;;;22.10;12.55;;;;;;;;;;5084794;28;20016;-67
2022/06/27 12:11:27;;;;;;;23.23;14.88;;;;;;;;;;5081279;28;20502;-67
2022/06/27 12:13:57;;;;;;;21.27;14.35;;;;;;;;;;5083415;28;20016;-67
2022/06/27 12:16:23;;;;;;;23.33;15.52;;;;;;;;;;5076805;28;20024;-67
2022/06/27 12:18:51;;;;;;;27.25;15.13;;;;;;;;;;5081594;28;20055;-67
2022/06/27 12:21:17;;;;;;;26.65;15.73;;;;;;;;;;5084305;28;20012;-67
2022/06/27 12:23:42;;;;;;;26.08;16.08;;;;;;;;;;5085162;28;20499;-67
2022/06/27 12:26:09;;;;;;;23.83;15.52;;;;;;;;;;5083432;28;20123;-67
2022/06/27 12:28:34;;;;;;;21.58;13.35;;;;;;;;;;5079819;28;20019;-67
2022/06/27 12:31:00;;;;;;;25.90;14.77;;;;;;;;;;5077619;28;20380;-67
2022/06/27 12:33:26;;;;;;;22.75;14.60;;;;;;;;;;5090640;28;20742;-67
2022/06/27 12:35:51;;;;;;;21.40;13.60;;;;;;;;;;5081548;28;20020;-67
2022/06/27 12:38:17;;;;;;;19.98;12.98;;;;;;;;;;5086302;28;20348;-67
2022/06/27 12:40:42;;;;;;;22.20;12.88;;;;;;;;;;5085381;28;20067;-70
2022/06/27 12:43:07;;;;;;;16.58;12.63;;;;;;;;;;5090392;28;20078;-67
2022/06/27 12:45:34;;;;;;;18.58;12.32;;;;;;;;;;5083377;28;20547;-68
2022/06/27 12:47:59;;;;;;;19.33;11.90;;;;;;;;;;5087631;28;20025;-67
2022/06/27 12:50:24;;;;;;;20.33;11.75;;;;;;;;;;5079988;28;20095;-67
2022/06/27 12:52:50;;;;;;;25.92;11.98;;;;;;;;;;5083062;28;20138;-67
2022/06/27 12:55:15;;;;;;;22.65;12.45;;;;;;;;;;5082836;28;20040;-67
2022/06/27 12:57:40;;;;;;;24.95;14.63;;;;;;;;;;5087591;28;20023;-67
2022/06/27 13:00:06;;;;;;;20.37;11.97;;;;;;;;;;5080266;28;20020;-67
2022/06/27 13:02:32;;;;;;;19.20;11.55;;;;;;;;;;5086716;28;20274;-67
2022/06/27 13:04:57;;;;;;;25.13;12.23;;;;;;;;;;5080355;28;20108;-67
2022/06/27 13:07:22;;;;;;;18.27;10.77;;;;;;;;;;5084646;28;20052;-67
2022/06/27 13:09:48;;;;;;;17.88;9.65;;;;;;;;;;5082688;28;20020;-68
2022/06/27 13:12:13;;;;;;;15.35;11.27;;;;;;;;;;5083077;28;20062;-67
2022/06/27 13:14:39;;;;;;;18.15;11.07;;;;;;;;;;5080520;28;20520;-67
2022/06/27 13:17:04;;;;;;;16.17;11.90;;;;;;;;;;5081895;28;20018;-67
2022/06/27 13:19:30;;;;;;;18.10;10.83;;;;;;;;;;5080933;28;20066;-67
2022/06/27 13:21:56;;;;;;;17.50;10.27;;;;;;;;;;5081776;28;20754;-67
2022/06/27 13:24:21;;;;;;;18.05;10.52;;;;;;;;;;5081882;28;20099;-67
2022/06/27 13:26:46;;;;;;;20.50;10.18;;;;;;;;;;5081351;28;20056;-68
2022/06/27 13:29:11;;;;;;;26.48;12.00;;;;;;;;;;5091256;28;20369;-67
2022/06/27 13:31:37;;;;;;;17.48;11.82;;;;;;;;;;5082745;28;20020;-69
2022/06/27 13:34:02;;;;;;;16.10;10.75;;;;;;;;;;5088359;28;20427;-66
2022/06/27 13:36:27;;;;;;;17.27;10.67;;;;;;;;;;5084151;28;20884;-67
2022/06/27 13:38:52;;;;;;;20.57;12.13;;;;;;;;;;5080821;28;20284;-67
2022/06/27 13:41:17;;;;;;;16.17;11.80;;;;;;;;;;5082473;28;20052;-67
2022/06/27 13:43:43;;;;;;;16.70;10.95;;;;;;;;;;5078045;28;20819;-68
2022/06/27 13:46:08;;;;;;;16.97;10.40;;;;;;;;;;5080882;28;20073;-66
2022/06/27 13:48:33;;;;;;;19.48;10.63;;;;;;;;;;5088383;28;20028;-67
2022/06/27 13:50:58;;;;;;;15.07;9.30;;;;;;;;;;5078515;28;20025;-66
2022/06/27 13:53:23;;;;;;;12.30;8.63;;;;;;;;;;5077600;28;20024;-67
2022/06/27 13:55:49;;;;;;;16.35;9.32;;;;;;;;;;5077881;28;20289;-67
2022/06/27 13:58:15;;;;;;;15.77;9.63;;;;;;;;;;5089861;28;20026;-68
2022/06/27 14:00:40;;;;;;;14.75;8.50;;;;;;;;;;5088510;28;20016;-68
2022/06/27 14:03:06;;;;;;;12.30;7.53;;;;;;;;;;5080961;28;20130;-67
2022/06/27 14:05:31;;;;;;;20.00;8.57;;;;;;;;;;5080658;28;20472;-67
2022/06/27 14:07:57;;;;;;;13.15;7.45;;;;;;;;;;5083330;28;20282;-67
2022/06/27 14:10:23;;;;;;;17.58;7.85;;;;;;;;;;5080556;28;20016;-67
2022/06/27 14:12:48;;;;;;;19.73;8.60;;;;;;;;;;5081755;28;20065;-67
2022/06/27 14:15:14;;;;;;;14.57;8.50;;;;;;;;;;5084066;28;20087;-67
2022/06/27 14:17:39;;;;;;;19.33;7.82;;;;;;;;;;5077929;28;20052;-67
2022/06/27 14:20:06;;;;;;;19.10;7.53;;;;;;;;;;5085281;28;20016;-67
2022/06/27 14:22:31;;;;;;;15.65;7.43;;;;;;;;;;5085095;28;20022;-67
2022/06/27 14:24:56;;;;;;;15.05;6.10;;;;;;;;;;5084441;28;20029;-67
2022/06/27 14:27:22;;;;;;;20.40;6.57;;;;;;;;;;5080032;28;20096;-67
2022/06/27 14:29:47;;;;;;;10.73;6.07;;;;;;;;;;5079941;28;20056;-67
2022/06/27 14:32:12;;;;;;;8.95;5.15;;;;;;;;;;5081189;28;20077;-67